Terminal Aerodrome Forecast
Issued by NWS Upton, NY

Home | Current Version | Previous Version | Text Only | Print | Product List | Glossary On
Versions: 1 2 3 4 5 6 7 8 9 10 11 12 13 14 15 16 17 18 19 20 21 22 23 24 25
153
FTUS41 KOKX 100227 AAA
TAFISP
TAF AMD
KISP 100227Z 1002/1024 VRB02KT P6SM -SN FEW020 OVC060
     FM100600 VRB02KT 3SM -SN BKN020 OVC035
      TEMPO 1010/1014 2SM -SN OVC009
     FM101600 28013KT P6SM SCT015 BKN035
     FM101900 27014G21KT P6SM BKN050=

USA.gov is the U.S. government's official web portal to all federal, state and local government web resources and services.